createdAt,value
2023-05-08T00:05:31.943Z,13.20
2023-05-08T00:15:33.420Z,13.27
2023-05-08T00:25:34.867Z,18.73
2023-05-08T00:35:36.356Z,11.80
2023-05-08T00:45:39.538Z,14.30
2023-05-08T00:55:41.099Z,14.43
2023-05-08T01:05:43.687Z,12.37
2023-05-08T01:15:54.056Z,14.20
2023-05-08T01:25:57.397Z,12.43
2023-05-08T01:36:06.657Z,15.77
2023-05-08T01:46:14.727Z,13.17
2023-05-08T01:56:20.490Z,12.53
2023-05-08T02:06:23.153Z,15.07
2023-05-08T02:16:25.658Z,15.97
2023-05-08T02:26:28.504Z,16.40
2023-05-08T02:36:30.897Z,17.60
2023-05-08T02:47:07.010Z,17.93
2023-05-08T02:57:18.727Z,19.97
2023-05-08T03:07:23.057Z,15.90
2023-05-08T03:17:28.409Z,16.13
2023-05-08T03:27:30.808Z,19.67
2023-05-08T03:37:32.533Z,17.97
2023-05-08T03:47:36.418Z,21.33
2023-05-08T03:58:05.721Z,18.90
2023-05-08T04:08:19.515Z,16.23
2023-05-08T04:18:28.701Z,17.83
2023-05-08T04:28:30.274Z,15.77
2023-05-08T04:38:31.861Z,14.37
2023-05-08T04:48:33.405Z,13.93
2023-05-08T04:58:34.953Z,12.75
2023-05-08T05:08:36.411Z,13.73
2023-05-08T05:18:38.023Z,12.67
2023-05-08T05:28:39.572Z,9.30
2023-05-08T05:38:41.267Z,9.73
2023-05-08T05:48:42.772Z,11.55
2023-05-08T05:58:44.358Z,9.13
2023-05-08T06:08:47.780Z,8.43
2023-05-08T06:18:50.865Z,11.43
2023-05-08T06:28:52.480Z,9.30
2023-05-08T06:38:54.039Z,7.22
2023-05-08T06:48:55.530Z,5.37
2023-05-08T06:59:04.964Z,4.70
2023-05-08T07:09:12.499Z,5.13
2023-05-08T07:19:14.025Z,6.40
2023-05-08T07:29:15.554Z,7.93
2023-05-08T07:39:17.050Z,7.40
2023-05-08T07:49:18.733Z,10.07
2023-05-08T07:59:20.231Z,10.77
2023-05-08T08:09:21.806Z,12.53
2023-05-08T08:19:23.330Z,12.77
2023-05-08T08:29:26.778Z,12.73
2023-05-08T08:39:32.009Z,12.27
2023-05-08T08:49:42.760Z,9.87
2023-05-08T08:59:44.840Z,11.47
2023-05-08T09:09:47.335Z,9.93
2023-05-08T09:19:49.675Z,9.80
2023-05-08T09:30:03.057Z,7.60
2023-05-08T09:40:15.183Z,7.50
2023-05-08T09:50:17.453Z,6.53
2023-05-08T10:00:19.280Z,10.68
2023-05-08T10:10:29.434Z,7.60
2023-05-08T10:20:31.707Z,7.40
2023-05-08T10:30:36.323Z,8.93
2023-05-08T10:40:38.709Z,7.03
2023-05-08T10:51:01.452Z,7.78
2023-05-08T11:01:08.960Z,6.53
2023-05-08T11:11:20.626Z,8.57
2023-05-08T11:21:22.232Z,7.13
2023-05-08T11:31:24.595Z,7.40
2023-05-08T11:41:27.014Z,6.18
2023-05-08T11:51:33.226Z,6.77
2023-05-08T12:01:35.701Z,6.77
2023-05-08T12:11:37.233Z,6.63
2023-05-08T12:21:39.316Z,5.07
2023-05-08T12:31:41.217Z,5.63
2023-05-08T12:41:50.081Z,6.47
2023-05-08T12:51:51.674Z,6.27
2023-05-08T13:01:53.422Z,5.70
2023-05-08T13:11:54.987Z,6.97
2023-05-08T13:21:56.538Z,5.70
2023-05-08T13:31:58.153Z,7.47
2023-05-08T13:41:59.732Z,7.30
2023-05-08T13:52:01.260Z,7.30
2023-05-08T14:02:02.926Z,5.87
2023-05-08T14:12:04.615Z,6.85
2023-05-08T14:22:06.097Z,7.13
2023-05-08T14:32:07.668Z,8.63
2023-05-08T14:52:13.648Z,9.07
2023-05-08T15:02:15.461Z,7.57
2023-05-08T15:12:17.461Z,10.17
2023-05-08T15:22:19.010Z,5.73
2023-05-08T15:32:25.585Z,7.47
2023-05-08T15:42:27.363Z,8.43
2023-05-08T15:52:29.166Z,11.43
2023-05-08T16:02:31.411Z,8.53
2023-05-08T16:12:33.151Z,9.13
2023-05-08T16:22:35.197Z,6.67
2023-05-08T16:32:37.036Z,7.23
2023-05-08T16:42:38.741Z,12.52
2023-05-08T16:52:40.409Z,7.47
2023-05-08T17:02:42.218Z,7.57
2023-05-08T17:12:43.984Z,7.27
2023-05-08T17:22:45.585Z,7.80
2023-05-08T17:32:47.331Z,6.68
2023-05-08T17:42:48.967Z,6.43
2023-05-08T17:52:50.585Z,7.30
2023-05-08T18:02:52.174Z,9.43
2023-05-08T18:12:53.760Z,11.57
2023-05-08T18:22:55.262Z,12.00
2023-05-08T18:32:56.871Z,13.27
2023-05-08T18:42:58.460Z,8.50
2023-05-08T18:53:00.129Z,9.60
2023-05-08T19:03:01.812Z,10.43
2023-05-08T19:13:03.470Z,8.32
2023-05-08T19:23:04.948Z,11.67
2023-05-08T19:33:06.651Z,8.60
2023-05-08T19:43:08.190Z,10.77
2023-05-08T19:53:09.662Z,10.17
2023-05-08T20:03:11.320Z,10.48
2023-05-08T20:13:12.922Z,10.83
2023-05-08T20:23:18.045Z,9.80
2023-05-08T20:33:19.632Z,9.50
2023-05-08T20:43:21.164Z,11.20
2023-05-08T20:53:22.699Z,12.25
2023-05-08T21:03:24.193Z,14.47
2023-05-08T21:13:25.914Z,11.10
2023-05-08T21:23:29.012Z,11.83
2023-05-08T21:33:30.476Z,14.50
2023-05-08T21:43:31.949Z,14.02
2023-05-08T21:53:33.457Z,11.37
2023-05-08T22:03:35.146Z,13.00
2023-05-08T22:13:36.777Z,12.80
2023-05-08T22:23:38.332Z,12.80
2023-05-08T22:33:40.258Z,12.52
2023-05-08T22:43:41.869Z,11.33
2023-05-08T22:53:44.869Z,12.93
2023-05-08T23:03:46.397Z,14.03
2023-05-08T23:13:47.936Z,16.17
2023-05-08T23:23:49.407Z,15.02
2023-05-08T23:33:50.856Z,12.90
2023-05-08T23:43:52.307Z,15.97
2023-05-08T23:53:53.815Z,15.17
